Time;durP1;ratioP1;P1;durP2;ratioP2;P2;SDS_P1;SDS_P2;PMS_P1;PMS_P2;Temp;Humidity;BMP_temperature;BMP_pressure;BME280_temperature;BME280_humidity;BME280_pressure;Samples;Min_cycle;Max_cycle;Signal;HPM_P1;HPM_P2
2021/12/28 00:01:02;;;;;;;0.00;0.00;;;;;;;;;;6244128;22;20414;-62
2021/12/28 00:03:28;;;;;;;0.00;0.00;;;;;;;;;;6271654;22;20416;-62
2021/12/28 00:05:53;;;;;;;0.00;0.00;;;;;;;;;;6273058;22;20078;-62
2021/12/28 00:08:19;;;;;;;0.00;0.00;;;;;;;;;;6273893;22;20008;-62
2021/12/28 00:10:45;;;;;;;0.00;0.00;;;;;;;;;;6272969;22;20000;-62
2021/12/28 00:13:10;;;;;;;2.65;0.20;;;;;;;;;;6273798;22;20012;-62
2021/12/28 00:15:48;;;;;;;0.00;0.00;;;;;;;;;;6246246;22;20090;-62
2021/12/28 00:18:14;;;;;;;0.00;0.00;;;;;;;;;;6273150;22;20307;-62
2021/12/28 00:20:41;;;;;;;0.00;0.00;;;;;;;;;;6272113;22;19995;-61
2021/12/28 00:23:08;;;;;;;0.00;0.00;;;;;;;;;;6272347;22;20456;-61
2021/12/28 00:25:33;;;;;;;0.00;0.00;;;;;;;;;;6272779;22;20054;-62
2021/12/28 00:28:00;;;;;;;0.00;0.00;;;;;;;;;;6273090;22;20089;-62
2021/12/28 00:30:25;;;;;;;0.00;0.00;;;;;;;;;;6273401;22;20008;-62
2021/12/28 00:32:56;;;;;;;0.00;0.00;;;;;;;;;;6271945;22;20444;-63
2021/12/28 00:35:22;;;;;;;0.00;0.00;;;;;;;;;;6273679;22;20272;-62
2021/12/28 00:37:47;;;;;;;0.00;0.00;;;;;;;;;;6272966;22;20003;-62
2021/12/28 00:40:12;;;;;;;16.55;14.90;;;;;;;;;;6273741;22;20475;-63
2021/12/28 00:42:38;;;;;;;0.00;0.00;;;;;;;;;;6273009;22;20000;-62
2021/12/28 00:45:03;;;;;;;0.00;0.00;;;;;;;;;;6273580;22;20049;-63
2021/12/28 00:47:28;;;;;;;0.00;0.00;;;;;;;;;;6273613;22;20027;-63
2021/12/28 00:49:54;;;;;;;0.00;0.00;;;;;;;;;;6272523;22;20006;-62
2021/12/28 00:52:19;;;;;;;0.47;0.47;;;;;;;;;;6272703;22;20070;-62
2021/12/28 00:54:44;;;;;;;0.00;0.00;;;;;;;;;;6272115;22;20000;-62
2021/12/28 00:57:09;;;;;;;3.28;3.03;;;;;;;;;;6272303;22;20071;-62
2021/12/28 00:59:35;;;;;;;0.00;0.00;;;;;;;;;;6272554;22;20007;-62
2021/12/28 01:02:00;;;;;;;0.00;0.00;;;;;;;;;;6271508;22;20004;-62
2021/12/28 01:04:26;;;;;;;0.00;0.00;;;;;;;;;;6272399;22;20314;-61
2021/12/28 01:06:51;;;;;;;0.00;0.00;;;;;;;;;;6271280;22;20003;-62
2021/12/28 01:09:17;;;;;;;0.00;0.00;;;;;;;;;;6272630;22;20000;-62
2021/12/28 01:11:42;;;;;;;0.00;0.00;;;;;;;;;;6271521;22;20007;-62
2021/12/28 01:14:08;;;;;;;0.00;0.00;;;;;;;;;;6272899;22;20002;-62
2021/12/28 01:16:33;;;;;;;0.00;0.00;;;;;;;;;;6272284;22;20320;-62
2021/12/28 01:18:58;;;;;;;0.00;0.00;;;;;;;;;;6271534;22;19991;-62
2021/12/28 01:21:26;;;;;;;0.00;0.00;;;;;;;;;;6272368;22;20317;-63
2021/12/28 01:23:52;;;;;;;0.00;0.00;;;;;;;;;;6271996;22;19999;-62
2021/12/28 01:26:17;;;;;;;0.00;0.00;;;;;;;;;;6272178;22;20702;-63
2021/12/28 01:28:42;;;;;;;0.00;0.00;;;;;;;;;;6271837;22;20030;-62
2021/12/28 01:31:07;;;;;;;0.00;0.00;;;;;;;;;;6271601;22;20599;-62
2021/12/28 01:33:32;;;;;;;0.00;0.00;;;;;;;;;;6272153;22;20023;-62
2021/12/28 01:35:58;;;;;;;0.00;0.00;;;;;;;;;;6271455;22;19996;-63
2021/12/28 01:38:23;;;;;;;0.00;0.00;;;;;;;;;;6272335;22;20303;-62
2021/12/28 01:40:49;;;;;;;0.00;0.00;;;;;;;;;;6272733;22;19996;-62
2021/12/28 01:43:21;;;;;;;0.00;0.00;;;;;;;;;;6272955;22;20421;-62
2021/12/28 01:45:51;;;;;;;0.00;0.00;;;;;;;;;;6272562;22;20287;-63
2021/12/28 01:48:36;;;;;;;0.00;0.00;;;;;;;;;;6272569;22;20015;-62
2021/12/28 01:51:03;;;;;;;0.00;0.00;;;;;;;;;;6272811;22;20000;-62
2021/12/28 01:53:29;;;;;;;0.55;0.55;;;;;;;;;;6273116;22;19996;-63
2021/12/28 01:55:56;;;;;;;0.00;0.00;;;;;;;;;;6272655;22;20046;-62
2021/12/28 01:58:21;;;;;;;0.00;0.00;;;;;;;;;;6272893;22;20070;-63
2021/12/28 02:00:48;;;;;;;0.00;0.00;;;;;;;;;;6271588;22;20027;-62
2021/12/28 02:03:14;;;;;;;0.00;0.00;;;;;;;;;;6272808;22;20073;-63
2021/12/28 02:05:40;;;;;;;0.10;0.10;;;;;;;;;;6272037;22;20000;-62
2021/12/28 02:08:06;;;;;;;0.00;0.00;;;;;;;;;;6272707;22;20018;-63
2021/12/28 02:10:32;;;;;;;0.00;0.00;;;;;;;;;;6272908;22;20007;-62
2021/12/28 02:12:57;;;;;;;0.00;0.00;;;;;;;;;;6272276;22;20448;-63
2021/12/28 02:15:22;;;;;;;0.00;0.00;;;;;;;;;;6272947;22;20065;-62
2021/12/28 02:17:47;;;;;;;0.00;0.00;;;;;;;;;;6272171;22;20000;-63
2021/12/28 02:20:15;;;;;;;0.00;0.00;;;;;;;;;;6272393;22;19999;-63
2021/12/28 02:22:41;;;;;;;0.00;0.00;;;;;;;;;;6271979;22;20035;-62
2021/12/28 02:25:07;;;;;;;0.10;0.10;;;;;;;;;;6272212;22;20000;-63
2021/12/28 02:27:32;;;;;;;0.00;0.00;;;;;;;;;;6271488;22;20481;-62
2021/12/28 02:29:57;;;;;;;0.00;0.00;;;;;;;;;;6271973;22;20081;-62
2021/12/28 02:32:24;;;;;;;0.00;0.00;;;;;;;;;;6272664;22;19996;-63
2021/12/28 02:34:50;;;;;;;0.00;0.00;;;;;;;;;;6271583;22;19991;-63
2021/12/28 02:37:15;;;;;;;0.00;0.00;;;;;;;;;;6272959;22;20460;-63
2021/12/28 02:39:40;;;;;;;0.00;0.00;;;;;;;;;;6271909;22;20305;-63
2021/12/28 02:42:06;;;;;;;0.00;0.00;;;;;;;;;;6272470;22;20003;-62
2021/12/28 02:44:31;;;;;;;0.00;0.00;;;;;;;;;;6272203;22;20053;-62
2021/12/28 02:46:56;;;;;;;0.00;0.00;;;;;;;;;;6271113;22;19995;-62
2021/12/28 02:49:21;;;;;;;2.67;2.50;;;;;;;;;;6271902;22;20432;-63
2021/12/28 02:51:47;;;;;;;0.00;0.00;;;;;;;;;;6271862;22;20003;-62
2021/12/28 02:54:47;;;;;;;0.00;0.00;;;;;;;;;;6272496;22;20002;-63
2021/12/28 02:57:12;;;;;;;0.00;0.00;;;;;;;;;;6271230;22;19995;-62
2021/12/28 02:59:48;;;;;;;0.10;0.10;;;;;;;;;;6271714;22;20413;-62
2021/12/28 03:02:13;;;;;;;0.00;0.00;;;;;;;;;;6271050;22;20009;-63
2021/12/28 03:04:39;;;;;;;0.00;0.00;;;;;;;;;;6271448;22;20070;-62
2021/12/28 03:07:04;;;;;;;0.00;0.00;;;;;;;;;;6271929;22;20336;-62
2021/12/28 03:09:29;;;;;;;0.00;0.00;;;;;;;;;;6272681;22;20019;-62
2021/12/28 03:11:54;;;;;;;0.22;0.22;;;;;;;;;;6271737;22;20003;-63
2021/12/28 03:14:20;;;;;;;0.00;0.00;;;;;;;;;;6272503;22;20006;-63
2021/12/28 03:16:45;;;;;;;0.45;0.45;;;;;;;;;;6271597;22;20007;-62
2021/12/28 03:19:10;;;;;;;0.00;0.00;;;;;;;;;;6271919;22;19996;-63
2021/12/28 03:21:35;;;;;;;0.52;0.40;;;;;;;;;;6272407;22;20031;-62
2021/12/28 03:24:01;;;;;;;0.00;0.00;;;;;;;;;;6272097;22;20489;-63
2021/12/28 03:26:26;;;;;;;0.00;0.00;;;;;;;;;;6271609;22;20019;-62
2021/12/28 03:28:52;;;;;;;0.00;0.00;;;;;;;;;;6271688;22;20049;-62
2021/12/28 03:31:18;;;;;;;1.50;0.35;;;;;;;;;;6272244;22;20317;-62
2021/12/28 03:33:45;;;;;;;1.33;1.25;;;;;;;;;;6271293;22;20089;-62
2021/12/28 03:36:11;;;;;;;0.10;0.10;;;;;;;;;;6272274;22;20589;-62
2021/12/28 03:38:38;;;;;;;0.45;0.45;;;;;;;;;;6272194;22;20070;-62
2021/12/28 03:41:07;;;;;;;0.00;0.00;;;;;;;;;;6274030;22;20003;-62
2021/12/28 03:43:33;;;;;;;0.50;0.50;;;;;;;;;;6274184;22;20070;-62
2021/12/28 03:45:58;;;;;;;0.10;0.10;;;;;;;;;;6273896;22;20027;-62
2021/12/28 03:48:24;;;;;;;0.00;0.00;;;;;;;;;;6273992;22;20004;-61
2021/12/28 03:50:49;;;;;;;0.28;0.28;;;;;;;;;;6273694;22;20007;-63
2021/12/28 03:53:14;;;;;;;2.17;0.80;;;;;;;;;;6274131;22;19999;-63
2021/12/28 03:55:39;;;;;;;0.00;0.00;;;;;;;;;;6246396;22;20000;-62
2021/12/28 03:58:06;;;;;;;0.30;0.30;;;;;;;;;;6273814;22;20075;-62
2021/12/28 04:00:33;;;;;;;0.70;0.70;;;;;;;;;;6273859;22;19999;-62
2021/12/28 04:02:58;;;;;;;0.00;0.00;;;;;;;;;;6273489;22;20000;-62
2021/12/28 04:05:24;;;;;;;0.00;0.00;;;;;;;;;;6273746;22;20015;-62
2021/12/28 04:07:49;;;;;;;0.47;0.47;;;;;;;;;;6273756;22;20049;-62
2021/12/28 04:10:16;;;;;;;0.00;0.00;;;;;;;;;;6274118;22;20006;-62
2021/12/28 04:12:42;;;;;;;0.00;0.00;;;;;;;;;;6274135;22;20483;-61
2021/12/28 04:15:08;;;;;;;0.00;0.00;;;;;;;;;;6273365;22;19992;-62
2021/12/28 04:17:37;;;;;;;0.45;0.45;;;;;;;;;;6273838;22;20048;-62
2021/12/28 04:20:04;;;;;;;0.00;0.00;;;;;;;;;;6273219;22;20002;-62
2021/12/28 04:22:29;;;;;;;0.43;0.43;;;;;;;;;;6273489;22;20000;-62
2021/12/28 04:24:54;;;;;;;0.80;0.52;;;;;;;;;;6273004;22;20026;-62
2021/12/28 04:27:19;;;;;;;1.08;1.08;;;;;;;;;;6273742;22;20327;-62
2021/12/28 04:29:46;;;;;;;1.67;0.90;;;;;;;;;;6273660;22;20424;-63
2021/12/28 04:32:11;;;;;;;0.00;0.00;;;;;;;;;;6273221;22;20004;-62
2021/12/28 04:34:36;;;;;;;0.00;0.00;;;;;;;;;;6273340;22;20366;-62
2021/12/28 04:37:02;;;;;;;0.85;0.85;;;;;;;;;;6272949;22;20010;-62
2021/12/28 04:39:27;;;;;;;25.67;2.08;;;;;;;;;;6273563;22;19996;-62
2021/12/28 04:41:52;;;;;;;0.00;0.00;;;;;;;;;;6273240;22;20000;-62
2021/12/28 04:44:23;;;;;;;0.80;0.75;;;;;;;;;;6274030;22;20004;-62
2021/12/28 04:46:49;;;;;;;3.20;3.03;;;;;;;;;;6272267;22;19999;-63
2021/12/28 04:49:16;;;;;;;0.13;0.13;;;;;;;;;;6272985;22;19999;-62
2021/12/28 04:51:41;;;;;;;0.00;0.00;;;;;;;;;;6272589;22;19996;-62
2021/12/28 04:54:11;;;;;;;0.00;0.00;;;;;;;;;;6272863;22;20000;-62
2021/12/28 04:56:37;;;;;;;0.10;0.00;;;;;;;;;;6273667;22;20050;-62
2021/12/28 04:59:02;;;;;;;0.00;0.00;;;;;;;;;;6272768;22;19991;-62
2021/12/28 05:01:27;;;;;;;0.95;0.47;;;;;;;;;;6273490;22;20014;-62
2021/12/28 05:03:52;;;;;;;0.00;0.00;;;;;;;;;;6272289;22;20004;-63
2021/12/28 05:06:18;;;;;;;0.15;0.15;;;;;;;;;;6273490;22;20045;-63
2021/12/28 05:08:43;;;;;;;0.57;0.57;;;;;;;;;;6273516;22;20058;-63
2021/12/28 05:11:08;;;;;;;0.00;0.00;;;;;;;;;;6272573;22;20007;-63
2021/12/28 05:13:33;;;;;;;0.98;0.98;;;;;;;;;;6273599;22;20414;-63
2021/12/28 05:15:59;;;;;;;0.10;0.10;;;;;;;;;;6272878;22;20075;-63
2021/12/28 05:18:24;;;;;;;0.15;0.10;;;;;;;;;;6273469;22;19999;-62
2021/12/28 05:20:49;;;;;;;0.00;0.00;;;;;;;;;;6271498;22;20007;-61
2021/12/28 05:23:18;;;;;;;0.30;0.30;;;;;;;;;;6245845;22;20011;-62
2021/12/28 05:25:43;;;;;;;0.98;0.70;;;;;;;;;;6273093;22;20392;-62
2021/12/28 05:28:08;;;;;;;0.00;0.00;;;;;;;;;;6272909;22;20031;-62
2021/12/28 05:30:34;;;;;;;0.00;0.00;;;;;;;;;;6272745;22;20409;-61
2021/12/28 05:32:59;;;;;;;0.25;0.15;;;;;;;;;;6272651;22;20096;-62
2021/12/28 05:35:24;;;;;;;0.93;0.93;;;;;;;;;;6272855;22;19996;-62
2021/12/28 05:37:50;;;;;;;0.00;0.00;;;;;;;;;;6272893;22;20049;-62
2021/12/28 05:40:15;;;;;;;0.98;0.82;;;;;;;;;;6273007;22;20002;-64
2021/12/28 05:42:40;;;;;;;0.00;0.00;;;;;;;;;;6245988;22;20000;-62
2021/12/28 05:45:06;;;;;;;0.22;0.22;;;;;;;;;;6272593;22;20003;-62
2021/12/28 05:47:31;;;;;;;1.40;0.98;;;;;;;;;;6273414;22;20018;-62
2021/12/28 05:49:56;;;;;;;0.00;0.00;;;;;;;;;;6271179;22;20004;-61
2021/12/28 05:52:22;;;;;;;0.47;0.47;;;;;;;;;;6272967;22;20003;-62
2021/12/28 05:54:47;;;;;;;10.15;0.88;;;;;;;;;;6272947;22;19996;-62
2021/12/28 05:57:13;;;;;;;2.13;0.52;;;;;;;;;;6272723;22;19999;-62
2021/12/28 05:59:38;;;;;;;1.00;0.90;;;;;;;;;;6273163;22;20038;-61
2021/12/28 06:02:04;;;;;;;0.10;0.05;;;;;;;;;;6271907;22;19999;-62
2021/12/28 06:04:29;;;;;;;2.72;2.10;;;;;;;;;;6272447;22;20034;-61
2021/12/28 06:06:54;;;;;;;1.42;1.33;;;;;;;;;;6271822;22;20011;-62
2021/12/28 06:09:20;;;;;;;0.35;0.35;;;;;;;;;;6272765;22;20444;-61
2021/12/28 06:11:45;;;;;;;1.98;1.80;;;;;;;;;;6272561;22;20018;-61
2021/12/28 06:14:10;;;;;;;0.05;0.05;;;;;;;;;;6272156;22;20429;-61
2021/12/28 06:16:39;;;;;;;1.27;0.90;;;;;;;;;;6272601;22;20410;-61
2021/12/28 06:19:04;;;;;;;0.10;0.10;;;;;;;;;;6271387;22;19996;-61
2021/12/28 06:21:31;;;;;;;0.25;0.25;;;;;;;;;;6272328;22;20046;-61
2021/12/28 06:23:56;;;;;;;0.68;0.25;;;;;;;;;;6272012;22;20044;-62
2021/12/28 06:26:22;;;;;;;0.00;0.00;;;;;;;;;;6272398;22;20098;-62
2021/12/28 06:28:47;;;;;;;4.22;2.53;;;;;;;;;;6272570;22;20005;-62
2021/12/28 06:31:12;;;;;;;0.85;0.85;;;;;;;;;;6271880;22;20287;-62
2021/12/28 06:33:37;;;;;;;0.00;0.00;;;;;;;;;;6272619;22;19992;-62
2021/12/28 06:36:05;;;;;;;1.30;0.43;;;;;;;;;;6271694;22;20496;-63
2021/12/28 06:38:30;;;;;;;1.45;1.35;;;;;;;;;;6272786;22;20201;-61
2021/12/28 06:40:56;;;;;;;0.10;0.10;;;;;;;;;;6271947;22;19999;-63
2021/12/28 06:43:21;;;;;;;0.00;0.00;;;;;;;;;;6272186;22;19999;-63
2021/12/28 06:45:46;;;;;;;0.15;0.15;;;;;;;;;;6272683;22;19999;-62
2021/12/28 06:48:11;;;;;;;0.88;0.88;;;;;;;;;;6271397;22;19995;-62
2021/12/28 06:50:39;;;;;;;0.00;0.00;;;;;;;;;;6271970;22;20007;-61
2021/12/28 06:53:05;;;;;;;1.00;0.90;;;;;;;;;;6271980;22;20000;-62
2021/12/28 06:55:30;;;;;;;0.00;0.00;;;;;;;;;;6272270;22;20528;-62
2021/12/28 06:57:55;;;;;;;0.43;0.43;;;;;;;;;;6271821;22;20027;-62
2021/12/28 07:00:21;;;;;;;1.55;0.90;;;;;;;;;;6272272;22;20295;-63
2021/12/28 07:02:46;;;;;;;2.17;0.60;;;;;;;;;;6272759;22;20035;-63
2021/12/28 07:05:12;;;;;;;0.00;0.00;;;;;;;;;;6271469;22;20409;-64
2021/12/28 07:07:38;;;;;;;0.15;0.15;;;;;;;;;;6272082;22;20512;-62
2021/12/28 07:10:04;;;;;;;0.00;0.00;;;;;;;;;;6271653;22;20027;-64
2021/12/28 07:12:29;;;;;;;0.10;0.10;;;;;;;;;;6272421;22;20011;-64
2021/12/28 07:14:54;;;;;;;0.00;0.00;;;;;;;;;;6271452;22;20396;-64
2021/12/28 07:17:19;;;;;;;0.28;0.28;;;;;;;;;;6271440;22;20330;-62
2021/12/28 07:19:46;;;;;;;5.47;0.43;;;;;;;;;;6272294;22;20083;-62
2021/12/28 07:22:11;;;;;;;13.70;2.20;;;;;;;;;;6271481;22;20476;-63
2021/12/28 07:24:36;;;;;;;1.00;1.00;;;;;;;;;;6272324;22;20086;-63
2021/12/28 07:27:01;;;;;;;1.25;0.47;;;;;;;;;;6271311;22;20020;-62
2021/12/28 07:29:27;;;;;;;0.00;0.00;;;;;;;;;;6272101;22;20003;-62
2021/12/28 07:31:52;;;;;;;0.32;0.32;;;;;;;;;;6271885;22;19999;-63
2021/12/28 07:34:17;;;;;;;0.00;0.00;;;;;;;;;;6271497;22;20369;-63
2021/12/28 07:36:43;;;;;;;0.10;0.10;;;;;;;;;;6272562;22;20008;-63
2021/12/28 07:39:08;;;;;;;11.30;1.88;;;;;;;;;;6271523;22;19999;-63
2021/12/28 07:41:33;;;;;;;0.00;0.00;;;;;;;;;;6272178;22;20003;-64
2021/12/28 07:43:59;;;;;;;0.00;0.00;;;;;;;;;;6271578;22;20329;-63
2021/12/28 07:46:24;;;;;;;4.47;0.32;;;;;;;;;;6271352;22;20046;-64
2021/12/28 07:48:49;;;;;;;0.25;0.25;;;;;;;;;;6272114;22;20004;-62
2021/12/28 07:51:15;;;;;;;3.20;1.45;;;;;;;;;;6271243;22;20004;-62
2021/12/28 07:53:40;;;;;;;0.05;0.05;;;;;;;;;;6272272;22;20003;-62
2021/12/28 07:56:06;;;;;;;0.00;0.00;;;;;;;;;;6271256;22;20385;-63
2021/12/28 07:58:31;;;;;;;0.00;0.00;;;;;;;;;;6272103;22;20000;-62
2021/12/28 08:00:56;;;;;;;0.00;0.00;;;;;;;;;;6271206;22;20007;-62
2021/12/28 08:03:22;;;;;;;0.00;0.00;;;;;;;;;;6272041;22;19996;-63
2021/12/28 08:05:48;;;;;;;0.00;0.00;;;;;;;;;;6271663;22;20006;-62
2021/12/28 08:08:13;;;;;;;0.95;0.35;;;;;;;;;;6270866;22;20086;-62
2021/12/28 08:10:39;;;;;;;0.00;0.00;;;;;;;;;;6271629;22;19999;-63
2021/12/28 08:13:04;;;;;;;0.00;0.00;;;;;;;;;;6270895;22;19999;-63
2021/12/28 08:15:29;;;;;;;0.05;0.05;;;;;;;;;;6271870;22;20095;-63
2021/12/28 08:17:55;;;;;;;0.73;0.70;;;;;;;;;;6271426;22;20456;-63
2021/12/28 08:20:20;;;;;;;0.17;0.17;;;;;;;;;;6271436;22;20004;-62
2021/12/28 08:22:46;;;;;;;0.00;0.00;;;;;;;;;;6271970;22;20377;-63
2021/12/28 08:25:13;;;;;;;0.30;0.30;;;;;;;;;;6271298;22;20057;-64
2021/12/28 08:27:38;;;;;;;0.35;0.35;;;;;;;;;;6273354;22;20006;-64
2021/12/28 08:30:05;;;;;;;0.00;0.00;;;;;;;;;;6272992;22;20437;-63
2021/12/28 08:32:30;;;;;;;0.00;0.00;;;;;;;;;;6273319;22;20489;-63
2021/12/28 08:34:56;;;;;;;0.00;0.00;;;;;;;;;;6272502;22;19996;-64
2021/12/28 08:37:21;;;;;;;0.00;0.00;;;;;;;;;;6272949;22;20049;-64
2021/12/28 08:39:46;;;;;;;0.38;0.38;;;;;;;;;;6273492;22;20082;-63
2021/12/28 08:42:11;;;;;;;0.00;0.00;;;;;;;;;;6272306;22;19999;-64
2021/12/28 08:44:37;;;;;;;2.15;0.50;;;;;;;;;;6272136;22;20006;-63
2021/12/28 08:47:02;;;;;;;0.00;0.00;;;;;;;;;;6271409;22;19999;-62
2021/12/28 08:49:28;;;;;;;0.00;0.00;;;;;;;;;;6272020;22;20007;-63
2021/12/28 08:51:53;;;;;;;0.00;0.00;;;;;;;;;;6272154;22;20082;-63
2021/12/28 08:54:19;;;;;;;0.38;0.38;;;;;;;;;;6271889;22;20418;-63
2021/12/28 08:56:45;;;;;;;0.35;0.35;;;;;;;;;;6272193;22;20052;-63
2021/12/28 08:59:11;;;;;;;0.00;0.00;;;;;;;;;;6272322;22;19995;-63
2021/12/28 09:01:36;;;;;;;0.00;0.00;;;;;;;;;;6273166;22;20034;-63
2021/12/28 09:04:02;;;;;;;0.00;0.00;;;;;;;;;;6271477;22;20007;-62
2021/12/28 09:06:27;;;;;;;0.00;0.00;;;;;;;;;;6272068;22;20424;-63
2021/12/28 09:08:52;;;;;;;0.00;0.00;;;;;;;;;;6271757;22;20027;-64
2021/12/28 09:11:20;;;;;;;1.85;0.55;;;;;;;;;;6271332;22;20329;-64
2021/12/28 09:13:45;;;;;;;16.85;15.15;;;;;;;;;;6270940;22;20000;-64
2021/12/28 09:16:10;;;;;;;0.00;0.00;;;;;;;;;;6272110;22;20397;-64
2021/12/28 09:18:36;;;;;;;0.22;0.22;;;;;;;;;;6273227;22;20027;-62
2021/12/28 09:21:01;;;;;;;0.00;0.00;;;;;;;;;;6271912;22;20016;-63
2021/12/28 09:23:26;;;;;;;0.00;0.00;;;;;;;;;;6273094;22;20012;-63
2021/12/28 09:25:51;;;;;;;0.00;0.00;;;;;;;;;;6273012;22;20016;-63
2021/12/28 09:28:17;;;;;;;0.00;0.00;;;;;;;;;;6272527;22;20026;-64
2021/12/28 09:30:43;;;;;;;0.00;0.00;;;;;;;;;;6272579;22;20364;-63
2021/12/28 09:33:08;;;;;;;0.08;0.08;;;;;;;;;;6272412;22;20000;-63
2021/12/28 09:35:34;;;;;;;0.00;0.00;;;;;;;;;;6272392;22;20071;-63
2021/12/28 09:37:59;;;;;;;0.00;0.00;;;;;;;;;;6272073;22;20429;-63
2021/12/28 09:40:24;;;;;;;0.10;0.10;;;;;;;;;;6271982;22;19995;-63
2021/12/28 09:42:50;;;;;;;0.00;0.00;;;;;;;;;;6272321;22;20031;-63
2021/12/28 09:45:15;;;;;;;0.25;0.25;;;;;;;;;;6245160;22;20811;-62
2021/12/28 09:47:41;;;;;;;0.00;0.00;;;;;;;;;;6272699;22;20053;-62
2021/12/28 09:50:07;;;;;;;2.30;0.93;;;;;;;;;;6271689;22;20301;-63
2021/12/28 09:52:33;;;;;;;0.00;0.00;;;;;;;;;;6272299;22;20004;-63
2021/12/28 09:54:58;;;;;;;0.00;0.00;;;;;;;;;;6271683;22;20010;-63
2021/12/28 09:57:23;;;;;;;0.00;0.00;;;;;;;;;;6272631;22;20409;-63
2021/12/28 09:59:49;;;;;;;0.00;0.00;;;;;;;;;;6272024;22;20000;-63
2021/12/28 10:02:14;;;;;;;0.52;0.40;;;;;;;;;;6271115;22;20003;-64
2021/12/28 10:04:52;;;;;;;0.00;0.00;;;;;;;;;;6271405;22;19996;-63
2021/12/28 10:07:19;;;;;;;0.22;0.22;;;;;;;;;;6272022;22;20011;-64
2021/12/28 10:09:44;;;;;;;0.52;0.52;;;;;;;;;;6243930;22;20030;-62
2021/12/28 10:12:13;;;;;;;0.80;0.22;;;;;;;;;;6270544;22;19999;-63
2021/12/28 10:14:38;;;;;;;0.00;0.00;;;;;;;;;;6270457;22;20091;-63
2021/12/28 10:17:22;;;;;;;0.00;0.00;;;;;;;;;;6269277;22;20027;-63
2021/12/28 10:19:47;;;;;;;0.30;0.30;;;;;;;;;;6269824;22;19991;-64
2021/12/28 10:22:30;;;;;;;0.00;0.00;;;;;;;;;;6269554;22;20508;-63
2021/12/28 10:24:56;;;;;;;0.60;0.60;;;;;;;;;;6270291;22;20003;-63
2021/12/28 10:27:22;;;;;;;0.00;0.00;;;;;;;;;;6269352;22;20026;-64
2021/12/28 10:29:48;;;;;;;0.00;0.00;;;;;;;;;;6270372;22;20007;-64
2021/12/28 10:32:17;;;;;;;0.08;0.08;;;;;;;;;;6269595;22;20004;-63
2021/12/28 10:34:45;;;;;;;0.00;0.00;;;;;;;;;;6270331;22;20463;-63
2021/12/28 10:37:18;;;;;;;0.30;0.30;;;;;;;;;;6270508;22;19995;-63
2021/12/28 10:39:47;;;;;;;0.00;0.00;;;;;;;;;;6271364;22;20006;-64
2021/12/28 10:42:31;;;;;;;0.30;0.30;;;;;;;;;;6270720;22;19995;-64
2021/12/28 10:44:57;;;;;;;0.00;0.00;;;;;;;;;;6270483;22;20011;-64
2021/12/28 10:47:24;;;;;;;0.00;0.00;;;;;;;;;;6271038;22;19999;-63
2021/12/28 10:49:49;;;;;;;0.00;0.00;;;;;;;;;;6272387;22;20337;-63
2021/12/28 10:52:25;;;;;;;1.38;1.17;;;;;;;;;;6270783;22;19991;-63
2021/12/28 10:54:50;;;;;;;0.00;0.00;;;;;;;;;;6271567;22;20427;-63
2021/12/28 10:57:16;;;;;;;0.00;0.00;;;;;;;;;;6270384;22;20350;-63
2021/12/28 10:59:41;;;;;;;0.00;0.00;;;;;;;;;;6271769;22;19995;-63
2021/12/28 11:02:06;;;;;;;0.00;0.00;;;;;;;;;;6273186;22;19999;-66
2021/12/28 11:04:33;;;;;;;0.00;0.00;;;;;;;;;;6271798;22;19999;-70
2021/12/28 11:06:58;;;;;;;0.00;0.00;;;;;;;;;;6270346;22;19999;-68
2021/12/28 11:09:24;;;;;;;0.00;0.00;;;;;;;;;;6270907;22;20011;-69
2021/12/28 11:11:51;;;;;;;0.00;0.00;;;;;;;;;;6271013;22;20032;-70
2021/12/28 11:14:21;;;;;;;0.00;0.00;;;;;;;;;;6269499;22;20562;-69
2021/12/28 11:16:53;;;;;;;0.00;0.00;;;;;;;;;;6270355;22;20003;-68
2021/12/28 11:19:25;;;;;;;0.00;0.00;;;;;;;;;;6271159;22;20003;-71
2021/12/28 11:21:54;;;;;;;0.00;0.00;;;;;;;;;;6271683;22;20078;-70
2021/12/28 11:24:20;;;;;;;0.00;0.00;;;;;;;;;;6271426;22;20421;-69
2021/12/28 11:26:46;;;;;;;0.00;0.00;;;;;;;;;;6271427;22;20026;-69
2021/12/28 11:29:20;;;;;;;0.00;0.00;;;;;;;;;;6271616;22;20003;-70
2021/12/28 11:31:53;;;;;;;0.00;0.00;;;;;;;;;;6272497;22;20004;-69
2021/12/28 11:34:29;;;;;;;0.00;0.00;;;;;;;;;;6271097;22;20429;-74
2021/12/28 11:36:56;;;;;;;0.00;0.00;;;;;;;;;;6272190;22;20459;-69
2021/12/28 11:39:23;;;;;;;0.00;0.00;;;;;;;;;;6270942;22;19999;-67
2021/12/28 11:41:49;;;;;;;0.00;0.00;;;;;;;;;;6271781;22;19999;-68
2021/12/28 11:44:15;;;;;;;0.00;0.00;;;;;;;;;;6271003;22;20003;-69
2021/12/28 11:46:41;;;;;;;0.00;0.00;;;;;;;;;;6272278;22;20034;-67
2021/12/28 11:49:08;;;;;;;0.00;0.00;;;;;;;;;;6271287;22;19999;-68
2021/12/28 11:51:34;;;;;;;0.00;0.00;;;;;;;;;;6271467;22;20007;-69
2021/12/28 11:54:01;;;;;;;0.00;0.00;;;;;;;;;;6271676;22;20026;-67
2021/12/28 11:56:28;;;;;;;0.00;0.00;;;;;;;;;;6272211;22;19999;-68
2021/12/28 11:58:56;;;;;;;0.00;0.00;;;;;;;;;;6272586;22;20006;-68
2021/12/28 12:01:40;;;;;;;0.00;0.00;;;;;;;;;;6272944;22;20003;-68
2021/12/28 12:04:34;;;;;;;0.20;0.20;;;;;;;;;;6272974;22;20448;-68
2021/12/28 12:07:01;;;;;;;0.00;0.00;;;;;;;;;;6272312;22;20010;-68
2021/12/28 12:09:27;;;;;;;0.00;0.00;;;;;;;;;;6273877;22;20008;-68
2021/12/28 12:12:07;;;;;;;0.10;0.10;;;;;;;;;;6273720;22;20100;-69
2021/12/28 12:14:51;;;;;;;0.00;0.00;;;;;;;;;;6273735;22;20067;-68
2021/12/28 12:17:31;;;;;;;0.00;0.00;;;;;;;;;;6273427;22;20003;-69
2021/12/28 12:20:01;;;;;;;0.73;0.65;;;;;;;;;;6272956;22;20007;-68
2021/12/28 12:22:29;;;;;;;0.00;0.00;;;;;;;;;;6273433;22;20007;-69
2021/12/28 12:24:54;;;;;;;0.00;0.00;;;;;;;;;;6273469;22;20004;-66
2021/12/28 12:27:37;;;;;;;0.00;0.00;;;;;;;;;;6273358;22;20034;-67
2021/12/28 12:30:03;;;;;;;0.00;0.00;;;;;;;;;;6272949;22;20073;-67
2021/12/28 12:32:47;;;;;;;0.00;0.00;;;;;;;;;;6273574;22;19999;-67
2021/12/28 12:35:27;;;;;;;0.00;0.00;;;;;;;;;;6272450;22;19996;-67
2021/12/28 12:37:52;;;;;;;;;;;;;;;;;;6273832;22;20000;-67
2021/12/28 12:40:17;;;;;;;0.05;0.05;;;;;;;;;;6273195;22;19937;-68
2021/12/28 12:42:42;;;;;;;0.65;0.20;;;;;;;;;;6273301;22;20053;-67
2021/12/28 12:45:07;;;;;;;0.57;0.57;;;;;;;;;;6272257;22;20006;-67
2021/12/28 12:47:37;;;;;;;0.00;0.00;;;;;;;;;;6272884;22;20003;-67
2021/12/28 12:50:08;;;;;;;0.00;0.00;;;;;;;;;;6272113;22;20079;-67
2021/12/28 12:52:33;;;;;;;0.00;0.00;;;;;;;;;;6273530;22;20031;-67
2021/12/28 12:54:59;;;;;;;0.00;0.00;;;;;;;;;;6273163;22;20002;-67
2021/12/28 12:57:25;;;;;;;0.00;0.00;;;;;;;;;;6272380;22;20332;-67
2021/12/28 12:59:54;;;;;;;0.20;0.20;;;;;;;;;;6272996;22;20026;-69
2021/12/28 13:02:23;;;;;;;0.00;0.00;;;;;;;;;;6271339;22;20511;-67
2021/12/28 13:04:49;;;;;;;0.00;0.00;;;;;;;;;;6273222;22;20007;-67
2021/12/28 13:07:14;;;;;;;0.00;0.00;;;;;;;;;;6272457;22;20751;-67
2021/12/28 13:09:41;;;;;;;0.00;0.00;;;;;;;;;;6273040;22;20086;-66
2021/12/28 13:12:07;;;;;;;0.00;0.00;;;;;;;;;;6272174;22;20000;-68
2021/12/28 13:14:33;;;;;;;0.90;0.90;;;;;;;;;;6272595;22;20147;-68
2021/12/28 13:17:00;;;;;;;0.00;0.00;;;;;;;;;;6273104;22;20035;-68
2021/12/28 13:19:25;;;;;;;0.10;0.10;;;;;;;;;;6271754;22;20074;-68
2021/12/28 13:22:09;;;;;;;0.10;0.10;;;;;;;;;;6272388;22;20031;-68
2021/12/28 13:24:41;;;;;;;0.05;0.05;;;;;;;;;;6272323;22;20004;-68
2021/12/28 13:27:08;;;;;;;0.80;0.80;;;;;;;;;;6272475;22;20031;-68
2021/12/28 13:29:35;;;;;;;0.90;0.30;;;;;;;;;;6272954;22;20578;-68
2021/12/28 13:32:18;;;;;;;0.00;0.00;;;;;;;;;;6271594;22;20010;-67
2021/12/28 13:35:02;;;;;;;0.00;0.00;;;;;;;;;;6272434;22;20023;-67
2021/12/28 13:37:33;;;;;;;0.17;0.13;;;;;;;;;;6271982;22;20413;-68
2021/12/28 13:40:12;;;;;;;0.20;0.15;;;;;;;;;;6273027;22;20007;-67
2021/12/28 13:42:40;;;;;;;0.10;0.10;;;;;;;;;;6272977;22;20443;-67
2021/12/28 13:45:06;;;;;;;1.40;1.23;;;;;;;;;;6272337;22;20000;-67
2021/12/28 13:47:32;;;;;;;0.08;0.08;;;;;;;;;;6272748;22;19999;-68
2021/12/28 13:50:01;;;;;;;0.00;0.00;;;;;;;;;;6272627;22;20004;-68
2021/12/28 13:52:38;;;;;;;0.00;0.00;;;;;;;;;;6272024;22;20075;-67
2021/12/28 13:55:03;;;;;;;0.00;0.00;;;;;;;;;;6271796;22;19991;-67
2021/12/28 13:57:29;;;;;;;0.00;0.00;;;;;;;;;;6272326;22;20087;-67
2021/12/28 13:59:54;;;;;;;0.00;0.00;;;;;;;;;;6271788;22;20045;-68
2021/12/28 14:02:19;;;;;;;0.00;0.00;;;;;;;;;;6271890;22;19999;-67
2021/12/28 14:04:44;;;;;;;0.52;0.52;;;;;;;;;;6272698;22;20010;-67
2021/12/28 14:07:10;;;;;;;0.20;0.20;;;;;;;;;;6272065;22;20061;-67
2021/12/28 14:09:35;;;;;;;0.17;0.17;;;;;;;;;;6273060;22;20511;-68
2021/12/28 14:12:02;;;;;;;0.20;0.13;;;;;;;;;;6272546;22;20110;-66
2021/12/28 14:14:30;;;;;;;0.00;0.00;;;;;;;;;;6273300;22;20003;-67
2021/12/28 14:17:00;;;;;;;0.00;0.00;;;;;;;;;;6272312;22;20409;-67
2021/12/28 14:19:27;;;;;;;0.00;0.00;;;;;;;;;;6272420;22;20441;-67
2021/12/28 14:21:52;;;;;;;0.00;0.00;;;;;;;;;;6272130;22;20019;-67
2021/12/28 14:24:18;;;;;;;0.45;0.30;;;;;;;;;;6271722;22;20000;-67
2021/12/28 14:26:44;;;;;;;0.10;0.10;;;;;;;;;;6272493;22;20386;-67
2021/12/28 14:29:20;;;;;;;0.00;0.00;;;;;;;;;;6271749;22;20034;-67
2021/12/28 14:32:09;;;;;;;0.08;0.08;;;;;;;;;;6272274;22;20000;-67
2021/12/28 14:34:39;;;;;;;0.30;0.30;;;;;;;;;;6251648;22;20081;-67
2021/12/28 14:37:05;;;;;;;0.00;0.00;;;;;;;;;;6271693;22;20495;-67
2021/12/28 14:39:35;;;;;;;0.00;0.00;;;;;;;;;;6272326;22;20008;-67
2021/12/28 14:42:08;;;;;;;0.00;0.00;;;;;;;;;;6272564;22;20000;-67